罗盘
风向 的 风向 100° Le Puy-Loudes Airport 15/33
风: 3 kt, 1 beaufort

2 kt

2 kt
改变
0 1.000 2.000 3.000 4.000 5.000
BKN 500 ft
BKN 1.100 ft
BKN 2.100 ft
METAR LFHP 301900Z AUTO 10003KT 9999 BKN005/// BKN011/// BKN021/// ///TCU 11/10 Q1019

METAR Le Puy-Loudes Airport

Le Puy-Loudes Airport是Le Puy/Loudes,法国中的中型机场。 该机场有2条跑道: 15/33 和 15R/33L.

这份报告是针对2022年6月30日 9:00 下午, 当地时间在Le Puy-Loudes Airport进行的。

机场观察

风向为100°,速度为3 kt。

可见度为6¼ mi 或者更多。

有碎云在500 ft的高度, 碎云在1.100 ft的高度 和 碎云在2.100 ft的高度。 破损或更高的上限为500 ft。

温度和风寒是52 °F。 露点为50 °F,相对湿度为94%。 海平面上的气压为30,09 inHg (QNH)。

白天

今天,太阳从6:01 上午升起,在9:35 下午降落。 这适用于Le Puy-Loudes Airport,世界夏令时可能有所不同。 当地时间与世界标准时间之间的时差为+2 小时。 夏令时目前正在进行中。

公司介绍

我们没有关于这个机场的公司信息。

体会

到Vliegles.nl去找飞行课程,跳伞和其他飞行体验。 浏览页面,了解Le Puy-Loudes Airport附近所有可用的活动。 你也可以使用搜索功能来寻找你所在地附近的特定飞行课程、跳伞或其他飞行体验。

您会帮助我们保持Metar-Taf.com正常运行吗?
您的贡献有助于网站的进一步开发并支付费用。

没有更多广告

您是捐款5美元还是更多?然后,我们将永远不会再向您展示广告,这是我们永恒的感谢!
捐赠前先登录

跑道

Id 标题 侧风 逆风 侧风 %
15/33 151°-331° 2 kt 2 kt 78 %
15R/33L 151°-331° 2 kt 2 kt 78 %

逆风成分最大的方向会被突出显示,并用于横风计算。 这并不一定意味着这个方向在使用。

乌云

500 ft BKN 碎云
1.100 ft BKN 碎云
2.100 ft BKN 碎云

温度 & 天气

温度 52 °F
露点 50 °F
相对湿度 94%
Kp-index 0  

公司介绍

新增公司

下载我们的应用程序

在您的手机和平板电脑上轻松访问所有航空天气。
有许多网站上没有的功能,如离线支持和个人机场列表。

Studio Eveline

Benalmádena
España

我们和第三方通过cookies跟踪您在我们网站上的上网行为。如果您继续,我们认为您同意我们的cookie政策。 了解更多